createdAt,value
2019-04-30T00:01:48.646Z,97060.47
2019-04-30T00:04:25.446Z,97063.15
2019-04-30T00:06:57.012Z,97063.62
2019-04-30T00:09:28.758Z,97060.25
2019-04-30T00:12:01.319Z,97064.00
2019-04-30T00:14:38.641Z,97058.80
2019-04-30T00:17:06.464Z,97056.72
2019-04-30T00:19:39.380Z,97059.27
2019-04-30T00:22:10.738Z,97051.56
2019-04-30T00:24:46.891Z,97053.67
2019-04-30T00:27:15.608Z,97046.35
2019-04-30T00:29:46.948Z,97053.73
2019-04-30T00:32:18.524Z,97046.44
2019-04-30T00:34:49.920Z,97043.87
2019-04-30T00:37:21.309Z,97041.79
2019-04-30T00:39:53.041Z,97040.52
2019-04-30T00:42:28.600Z,97031.86
2019-04-30T00:44:59.739Z,97030.65
2019-04-30T00:47:32.189Z,97024.28
2019-04-30T00:50:04.952Z,97021.80
2019-04-30T00:52:37.357Z,97015.31
2019-04-30T00:55:09.620Z,97011.46
2019-04-30T00:57:46.193Z,97012.36
2019-04-30T01:00:17.804Z,97017.47
2019-04-30T01:03:15.426Z,97015.81
2019-04-30T01:05:48.008Z,97016.21
2019-04-30T01:08:21.103Z,97016.21
2019-04-30T01:10:52.697Z,97022.75
2019-04-30T01:13:24.314Z,97016.88
2019-04-30T01:15:55.585Z,97007.83
2019-04-30T01:18:28.580Z,97012.14
2019-04-30T01:21:02.975Z,97009.60
2019-04-30T01:23:33.205Z,97007.89
2019-04-30T01:26:04.800Z,97006.64
2019-04-30T01:28:36.209Z,96999.79
2019-04-30T01:31:08.977Z,96994.20
2019-04-30T01:33:40.461Z,96982.23
2019-04-30T01:36:13.476Z,96987.44
2019-04-30T01:38:51.020Z,96989.61
2019-04-30T01:41:22.019Z,96984.52
2019-04-30T01:43:53.001Z,96980.21
2019-04-30T01:46:24.250Z,96968.23
2019-04-30T01:48:55.768Z,96966.89
2019-04-30T01:51:28.582Z,96960.47
2019-04-30T01:54:00.204Z,96950.21
2019-04-30T01:56:42.740Z,96954.52
2019-04-30T01:59:20.905Z,96950.26
2019-04-30T02:01:52.228Z,96952.91
2019-04-30T02:04:24.887Z,96954.59
2019-04-30T02:06:56.075Z,96952.91
2019-04-30T02:09:28.665Z,96953.38
2019-04-30T02:12:00.296Z,96953.86
2019-04-30T02:14:31.649Z,96952.16
2019-04-30T02:17:02.814Z,96950.47
2019-04-30T02:19:35.388Z,96952.23
2019-04-30T02:22:06.971Z,96948.78
2019-04-30T02:24:38.688Z,96942.83
2019-04-30T02:27:10.255Z,96933.02
2019-04-30T02:29:42.166Z,96940.30
2019-04-30T02:32:13.512Z,96941.55
2019-04-30T02:34:50.936Z,96940.31
2019-04-30T02:37:26.873Z,96937.29
2019-04-30T02:40:00.859Z,96934.70
2019-04-30T02:42:32.924Z,96943.81
2019-04-30T02:45:05.114Z,96942.53
2019-04-30T02:47:40.016Z,96936.92
2019-04-30T02:50:18.101Z,96948.08
2019-04-30T02:52:45.512Z,96947.27
2019-04-30T02:55:23.781Z,96948.48
2019-04-30T02:57:55.188Z,96953.76
2019-04-30T03:00:29.815Z,96952.05
2019-04-30T03:03:00.189Z,96950.31
2019-04-30T03:05:32.386Z,96946.87
2019-04-30T03:08:03.713Z,96948.61
2019-04-30T03:10:35.005Z,96940.91
2019-04-30T03:13:09.673Z,96947.39
2019-04-30T03:15:40.189Z,96948.27
2019-04-30T03:18:23.025Z,96947.81
2019-04-30T03:21:02.226Z,96946.98
2019-04-30T03:23:33.705Z,96939.69
2019-04-30T03:26:04.949Z,96941.90
2019-04-30T03:28:39.473Z,96943.70
2019-04-30T03:31:12.527Z,96945.77
2019-04-30T03:33:42.883Z,96938.11
2019-04-30T03:36:14.238Z,96943.30
2019-04-30T03:38:45.427Z,96942.41
2019-04-30T03:41:19.576Z,96943.66
2019-04-30T03:43:50.450Z,96938.98
2019-04-30T03:46:21.835Z,96937.74
2019-04-30T03:48:53.175Z,96936.05
2019-04-30T03:51:24.571Z,96933.91
2019-04-30T03:53:55.748Z,96927.88
2019-04-30T03:56:29.643Z,96939.86
2019-04-30T03:59:00.368Z,96939.49
2019-04-30T04:01:49.845Z,96936.98
2019-04-30T04:04:31.475Z,96936.56
2019-04-30T04:07:30.628Z,96938.78
2019-04-30T04:10:10.795Z,96934.06
2019-04-30T04:12:41.991Z,96940.08
2019-04-30T04:15:13.852Z,96939.67
2019-04-30T04:17:45.038Z,96937.09
2019-04-30T04:20:16.549Z,96934.16
2019-04-30T04:22:49.655Z,96947.88
2019-04-30T04:25:20.805Z,96941.00
2019-04-30T04:27:52.207Z,96944.91
2019-04-30T04:30:23.806Z,96947.06
2019-04-30T04:32:55.141Z,96948.84
2019-04-30T04:35:26.564Z,96949.72
2019-04-30T04:38:00.345Z,96955.28
2019-04-30T04:40:31.557Z,96959.14
2019-04-30T04:43:03.166Z,96964.28
2019-04-30T04:45:34.447Z,96960.02
2019-04-30T04:48:06.568Z,96960.47
2019-04-30T04:50:40.000Z,96963.46
2019-04-30T04:53:11.703Z,96967.36
2019-04-30T04:55:43.469Z,96965.63
2019-04-30T04:58:14.770Z,96962.67
2019-04-30T05:00:46.028Z,96963.55
2019-04-30T05:03:34.379Z,96964.43
2019-04-30T05:06:05.881Z,96964.43
2019-04-30T05:08:37.246Z,96958.83
2019-04-30T05:11:09.562Z,96969.53
2019-04-30T05:13:40.899Z,96963.97
2019-04-30T05:16:12.158Z,96957.58
2019-04-30T05:18:43.495Z,96964.43
2019-04-30T05:21:15.109Z,96964.48
2019-04-30T05:23:46.381Z,96965.81
2019-04-30T05:26:19.128Z,96962.88
2019-04-30T05:28:52.763Z,96968.44
2019-04-30T05:31:24.564Z,96974.92
2019-04-30T05:33:56.068Z,96974.05
2019-04-30T05:36:29.241Z,96977.08
2019-04-30T05:39:00.663Z,96982.64
2019-04-30T05:41:32.109Z,96981.30
2019-04-30T05:44:03.497Z,96974.00
2019-04-30T05:46:34.762Z,96978.69
2019-04-30T05:49:06.150Z,96985.63
2019-04-30T05:51:38.797Z,96982.31
2019-04-30T05:54:10.249Z,96974.27
2019-04-30T05:56:42.828Z,96980.52
2019-04-30T05:59:14.407Z,96977.52
2019-04-30T06:01:48.637Z,96978.88
2019-04-30T06:04:30.589Z,96982.37
2019-04-30T06:07:01.902Z,96981.19
2019-04-30T06:09:48.650Z,96980.39
2019-04-30T06:12:33.703Z,96985.67
2019-04-30T06:15:14.803Z,96978.77
2019-04-30T06:17:59.729Z,96985.19
2019-04-30T06:20:23.234Z,96990.85
2019-04-30T06:22:56.443Z,96986.31
2019-04-30T06:25:41.109Z,96992.78
2019-04-30T06:28:02.262Z,96989.78
2019-04-30T06:30:34.975Z,96993.99
2019-04-30T06:33:09.301Z,96988.86
2019-04-30T06:35:41.325Z,97000.69
2019-04-30T06:38:12.720Z,96991.77
2019-04-30T06:40:44.498Z,96993.80
2019-04-30T06:43:19.179Z,96999.88
2019-04-30T06:45:51.352Z,96995.02
2019-04-30T06:48:24.634Z,96999.48
2019-04-30T06:50:59.127Z,96995.11
2019-04-30T06:53:30.354Z,97002.44
2019-04-30T06:56:01.694Z,97000.49
2019-04-30T06:58:32.979Z,96999.09
2019-04-30T07:01:04.496Z,97002.36
2019-04-30T07:03:35.782Z,97011.64
2019-04-30T07:06:08.424Z,97012.06
2019-04-30T07:08:59.510Z,97011.70
2019-04-30T07:11:49.683Z,97011.28
2019-04-30T07:14:22.723Z,97016.44
2019-04-30T07:16:54.036Z,97014.65
2019-04-30T07:19:32.983Z,97008.23
2019-04-30T07:21:59.399Z,97004.75
2019-04-30T07:24:30.880Z,97020.17
2019-04-30T07:27:02.865Z,97011.79
2019-04-30T07:29:34.481Z,97007.41
2019-04-30T07:32:06.113Z,97013.77
2019-04-30T07:34:39.523Z,97021.37
2019-04-30T07:37:17.393Z,97025.28
2019-04-30T07:39:44.286Z,97025.77
2019-04-30T07:42:15.621Z,97025.16
2019-04-30T07:44:47.089Z,97017.72
2019-04-30T07:47:19.497Z,97018.98
2019-04-30T07:49:55.164Z,97021.20
2019-04-30T07:52:25.101Z,97020.48
2019-04-30T07:55:00.455Z,97014.53
2019-04-30T07:57:32.463Z,97016.75
2019-04-30T08:00:03.632Z,97029.97
2019-04-30T08:02:43.551Z,97033.07
2019-04-30T08:05:21.396Z,97033.38
2019-04-30T08:07:53.038Z,97027.23
2019-04-30T08:10:24.563Z,97038.02
2019-04-30T08:12:56.067Z,97048.24
2019-04-30T08:15:29.586Z,97050.26
2019-04-30T08:18:05.707Z,97046.17
2019-04-30T08:20:36.448Z,97051.35
2019-04-30T08:23:17.347Z,97059.02
2019-04-30T08:25:41.127Z,97057.23
2019-04-30T08:28:12.414Z,97060.68
2019-04-30T08:30:43.732Z,97057.72
2019-04-30T08:33:15.333Z,97069.39
2019-04-30T08:35:46.980Z,97067.14
2019-04-30T08:38:19.168Z,97077.45
2019-04-30T08:40:56.130Z,97072.34
2019-04-30T08:43:24.104Z,97070.64
2019-04-30T08:45:55.875Z,97066.30
2019-04-30T08:48:43.808Z,97070.64
2019-04-30T08:51:00.044Z,97064.66
2019-04-30T08:53:33.702Z,97068.15
2019-04-30T08:56:04.818Z,97067.28
2019-04-30T08:58:36.598Z,97074.56
2019-04-30T09:01:08.847Z,97073.73
2019-04-30T09:03:40.323Z,97077.19
2019-04-30T09:06:20.002Z,97075.44
2019-04-30T09:08:59.208Z,97076.71
2019-04-30T09:11:38.454Z,97084.35
2019-04-30T09:14:03.350Z,97078.59
2019-04-30T09:16:34.984Z,97077.48
2019-04-30T09:19:06.370Z,97078.32
2019-04-30T09:21:38.559Z,97071.77
2019-04-30T09:24:10.683Z,97075.80
2019-04-30T09:26:42.050Z,97073.24
2019-04-30T09:29:13.632Z,97071.16
2019-04-30T09:31:45.085Z,97073.13
2019-04-30T09:34:18.550Z,97075.66
2019-04-30T09:36:50.287Z,97083.13
2019-04-30T09:39:23.115Z,97069.03
2019-04-30T09:41:54.545Z,97071.49
2019-04-30T09:44:26.098Z,97066.00
2019-04-30T09:46:58.873Z,97076.36
2019-04-30T09:49:30.585Z,97075.34
2019-04-30T09:52:02.480Z,97081.52
2019-04-30T09:54:33.806Z,97081.87
2019-04-30T09:57:05.353Z,97083.20
2019-04-30T09:59:38.791Z,97078.72
2019-04-30T10:02:10.889Z,97069.80
2019-04-30T10:04:42.865Z,97063.09
2019-04-30T10:07:14.632Z,97066.28
2019-04-30T10:09:50.645Z,97069.57
2019-04-30T10:12:20.303Z,97063.34
2019-04-30T10:14:51.657Z,97059.66
2019-04-30T10:17:41.865Z,97059.67
2019-04-30T10:20:16.911Z,97067.16
2019-04-30T10:22:49.531Z,97056.83
2019-04-30T10:25:21.073Z,97058.59
2019-04-30T10:27:53.105Z,97063.53
2019-04-30T10:30:30.285Z,97064.09
2019-04-30T10:33:01.556Z,97072.92
2019-04-30T10:35:32.994Z,97069.84
2019-04-30T10:38:04.722Z,97063.05
2019-04-30T10:40:36.213Z,97062.25
2019-04-30T10:43:08.908Z,97060.30
2019-04-30T10:45:40.795Z,97075.25
2019-04-30T10:48:12.236Z,97062.92
2019-04-30T10:50:43.628Z,97066.15
2019-04-30T10:53:15.245Z,97050.30
2019-04-30T10:55:48.455Z,97053.88
2019-04-30T10:58:20.092Z,97054.39
2019-04-30T11:00:51.608Z,97061.70
2019-04-30T11:03:23.365Z,97049.19
2019-04-30T11:05:54.700Z,97053.55
2019-04-30T11:08:26.054Z,97045.67
2019-04-30T11:10:57.415Z,97057.61
2019-04-30T11:13:29.066Z,97054.91
2019-04-30T11:16:12.069Z,97057.11
2019-04-30T11:18:33.704Z,97054.75
2019-04-30T11:21:05.632Z,97046.03
2019-04-30T11:23:38.971Z,97053.16
2019-04-30T11:26:10.879Z,97040.25
2019-04-30T11:28:42.637Z,97042.16
2019-04-30T11:31:32.256Z,97031.08
2019-04-30T11:34:04.252Z,97037.52
2019-04-30T11:36:35.947Z,97027.22
2019-04-30T11:39:15.648Z,97022.36
2019-04-30T11:41:47.191Z,97024.35
2019-04-30T11:44:30.335Z,97010.36
2019-04-30T11:47:20.711Z,97016.46
2019-04-30T11:49:52.118Z,97014.88
2019-04-30T11:52:23.720Z,97020.20
2019-04-30T11:54:55.058Z,97015.67
2019-04-30T11:57:26.582Z,97017.52
2019-04-30T11:59:58.345Z,97015.17
2019-04-30T12:02:39.848Z,97010.95
2019-04-30T12:05:15.840Z,97003.33
2019-04-30T12:08:04.691Z,97012.66
2019-04-30T12:10:52.168Z,97005.61
2019-04-30T12:13:30.870Z,97005.50
2019-04-30T12:16:03.063Z,97008.30
2019-04-30T12:18:34.331Z,97001.48
2019-04-30T12:21:05.855Z,97003.52
2019-04-30T12:23:37.198Z,96998.19
2019-04-30T12:26:09.272Z,96991.69
2019-04-30T12:28:40.619Z,96989.28
2019-04-30T12:31:13.466Z,96995.63
2019-04-30T12:33:44.787Z,96998.00
2019-04-30T12:36:16.217Z,96987.08
2019-04-30T12:38:47.896Z,96984.19
2019-04-30T12:41:19.256Z,96978.83
2019-04-30T12:43:50.663Z,96984.67
2019-04-30T12:46:22.011Z,96991.22
2019-04-30T12:49:05.868Z,96995.81
2019-04-30T12:52:03.393Z,96988.92
2019-04-30T12:54:53.553Z,96988.59
2019-04-30T12:57:39.077Z,96988.80
2019-04-30T13:00:16.197Z,96989.55
2019-04-30T13:02:47.584Z,96981.00
2019-04-30T13:05:19.016Z,96990.73
2019-04-30T13:07:51.221Z,96991.69
2019-04-30T13:10:23.872Z,96990.42
2019-04-30T13:12:55.928Z,96986.47
2019-04-30T13:15:28.121Z,96997.19
2019-04-30T13:17:59.565Z,96989.86
2019-04-30T13:20:31.053Z,96988.48
2019-04-30T13:23:02.512Z,96997.04
2019-04-30T13:25:35.703Z,96992.00
2019-04-30T13:28:12.874Z,96995.06
2019-04-30T13:30:44.327Z,96992.48
2019-04-30T13:33:30.917Z,96991.34
2019-04-30T13:36:02.526Z,96985.23
2019-04-30T13:38:52.687Z,96984.53
2019-04-30T13:42:01.552Z,96986.48
2019-04-30T13:44:39.390Z,96983.09
2019-04-30T13:47:11.000Z,96988.48
2019-04-30T13:49:42.163Z,96990.39
2019-04-30T13:52:13.519Z,96985.08
2019-04-30T13:54:44.942Z,96987.65
2019-04-30T13:57:16.173Z,96992.98
2019-04-30T13:59:50.882Z,96990.39
2019-04-30T14:02:20.406Z,96995.53
2019-04-30T14:04:58.271Z,96992.63
2019-04-30T14:08:09.389Z,96989.16
2019-04-30T14:10:44.379Z,96992.48
2019-04-30T14:13:15.891Z,96991.80
2019-04-30T14:15:48.308Z,96989.81
2019-04-30T14:18:28.322Z,96986.67
2019-04-30T14:20:52.780Z,96991.80
2019-04-30T14:23:24.142Z,96983.41
2019-04-30T14:25:56.904Z,96989.59
2019-04-30T14:28:29.198Z,96980.84
2019-04-30T14:31:00.948Z,96985.86
2019-04-30T14:33:32.117Z,96985.08
2019-04-30T14:36:03.470Z,96988.37
2019-04-30T14:38:34.740Z,96981.95
2019-04-30T14:41:07.326Z,96975.50
2019-04-30T14:43:46.872Z,96976.08
2019-04-30T14:46:40.667Z,96985.77
2019-04-30T14:49:39.882Z,96982.31
2019-04-30T14:52:12.407Z,96984.28
2019-04-30T14:54:54.595Z,96988.19
2019-04-30T14:57:43.660Z,96984.84
2019-04-30T15:00:33.299Z,96973.72
2019-04-30T15:03:10.419Z,96980.27
2019-04-30T15:05:48.505Z,96973.27
2019-04-30T15:08:15.467Z,96981.45
2019-04-30T15:10:47.083Z,96985.02
2019-04-30T15:13:19.561Z,96979.03
2019-04-30T15:15:51.050Z,96971.87
2019-04-30T15:18:23.393Z,96979.23
2019-04-30T15:20:54.659Z,96976.64
2019-04-30T15:23:56.390Z,96973.73
2019-04-30T15:26:22.890Z,96969.17
2019-04-30T15:28:53.357Z,96967.94
2019-04-30T15:31:24.780Z,96967.99
2019-04-30T15:34:11.063Z,96966.77
2019-04-30T15:36:42.651Z,96970.73
2019-04-30T15:39:35.235Z,96966.42
2019-04-30T15:42:07.014Z,96968.31
2019-04-30T15:44:45.292Z,96964.98
2019-04-30T15:47:11.715Z,96967.33
2019-04-30T15:49:43.113Z,96955.68
2019-04-30T15:52:14.468Z,96963.83
2019-04-30T15:54:45.877Z,96963.70
2019-04-30T15:57:18.948Z,96965.56
2019-04-30T15:59:50.329Z,96965.27
2019-04-30T16:02:40.574Z,96965.67
2019-04-30T16:05:30.887Z,96960.41
2019-04-30T16:08:12.710Z,96971.73
2019-04-30T16:11:00.620Z,96969.89
2019-04-30T16:13:36.158Z,96964.21
2019-04-30T16:16:09.146Z,96962.08
2019-04-30T16:18:49.373Z,96960.47
2019-04-30T16:21:20.906Z,96958.53
2019-04-30T16:23:52.514Z,96959.77
2019-04-30T16:26:23.932Z,96956.61
2019-04-30T16:28:55.612Z,96953.38
2019-04-30T16:31:29.015Z,96951.31
2019-04-30T16:34:00.163Z,96953.49
2019-04-30T16:36:31.485Z,96951.87
2019-04-30T16:39:02.991Z,96942.77
2019-04-30T16:41:36.069Z,96946.52
2019-04-30T16:44:09.219Z,96947.62
2019-04-30T16:46:40.885Z,96944.81
2019-04-30T16:49:13.550Z,96944.30
2019-04-30T16:51:44.987Z,96937.16
2019-04-30T16:54:16.340Z,96939.53
2019-04-30T16:57:02.531Z,96942.77
2019-04-30T16:59:30.387Z,96941.79
2019-04-30T17:02:00.913Z,96937.70
2019-04-30T17:04:55.519Z,96937.13
2019-04-30T17:08:03.408Z,96934.06
2019-04-30T17:10:43.462Z,96945.56
2019-04-30T17:13:21.416Z,96939.50
2019-04-30T17:15:55.953Z,96944.17
2019-04-30T17:18:27.261Z,96942.55
2019-04-30T17:20:58.680Z,96943.36
2019-04-30T17:23:29.938Z,96943.05
2019-04-30T17:26:01.319Z,96945.73
2019-04-30T17:28:32.572Z,96946.64
2019-04-30T17:31:03.970Z,96945.34
2019-04-30T17:33:35.322Z,96941.61
2019-04-30T17:36:08.356Z,96950.72
2019-04-30T17:38:40.497Z,96952.52
2019-04-30T17:41:11.834Z,96949.23
2019-04-30T17:43:43.062Z,96948.96
2019-04-30T17:46:14.517Z,96950.33
2019-04-30T17:48:46.138Z,96953.90
2019-04-30T17:51:17.566Z,96947.37
2019-04-30T17:54:06.622Z,96950.06
2019-04-30T17:56:37.976Z,96952.70
2019-04-30T17:59:09.312Z,96955.39
2019-04-30T18:01:42.219Z,96955.07
2019-04-30T18:04:13.900Z,96963.31
2019-04-30T18:06:45.680Z,96968.56
2019-04-30T18:09:19.147Z,96970.79
2019-04-30T18:11:50.661Z,96966.09
2019-04-30T18:14:22.011Z,96975.66
2019-04-30T18:16:53.304Z,96981.33
2019-04-30T18:19:45.552Z,96985.25
2019-04-30T18:22:35.007Z,96983.14
2019-04-30T18:25:31.289Z,96979.72
2019-04-30T18:28:02.657Z,96983.20
2019-04-30T18:30:36.016Z,96986.66
2019-04-30T18:33:09.686Z,96991.01
2019-04-30T18:35:40.745Z,96996.20
2019-04-30T18:38:12.681Z,96997.08
2019-04-30T18:40:44.171Z,96991.92
2019-04-30T18:43:15.592Z,97006.09
2019-04-30T18:45:46.884Z,97003.10
2019-04-30T18:48:21.333Z,97000.51
2019-04-30T18:50:52.863Z,97002.66
2019-04-30T18:53:28.454Z,97008.23
2019-04-30T18:55:59.822Z,97005.21
2019-04-30T18:58:39.951Z,97006.52
2019-04-30T19:01:05.390Z,97006.52
2019-04-30T19:03:36.909Z,97013.38
2019-04-30T19:06:22.861Z,97022.78
2019-04-30T19:08:54.229Z,97017.03
2019-04-30T19:11:31.252Z,97017.30
2019-04-30T19:14:13.348Z,97018.52
2019-04-30T19:17:14.166Z,97023.64
2019-04-30T19:20:19.783Z,97029.58
2019-04-30T19:22:51.221Z,97028.26
2019-04-30T19:25:22.487Z,97035.05
2019-04-30T19:27:53.833Z,97035.89
2019-04-30T19:30:25.349Z,97037.52
2019-04-30T19:32:56.737Z,97037.97
2019-04-30T19:35:29.997Z,97044.56
2019-04-30T19:38:01.404Z,97038.66
2019-04-30T19:40:32.988Z,97044.75
2019-04-30T19:43:04.551Z,97051.22
2019-04-30T19:45:37.130Z,97051.64
2019-04-30T19:48:09.030Z,97055.45
2019-04-30T19:50:40.324Z,97064.72
2019-04-30T19:53:11.731Z,97073.01
2019-04-30T19:55:43.263Z,97064.88
2019-04-30T19:58:26.195Z,97070.95
2019-04-30T20:00:49.729Z,97066.34
2019-04-30T20:03:20.624Z,97072.15
2019-04-30T20:05:54.249Z,97069.39
2019-04-30T20:08:25.519Z,97066.20
2019-04-30T20:10:56.708Z,97066.87
2019-04-30T20:13:36.535Z,97073.91
2019-04-30T20:16:01.349Z,97081.31
2019-04-30T20:18:32.597Z,97081.55
2019-04-30T20:21:09.200Z,97072.26
2019-04-30T20:23:40.566Z,97073.81
2019-04-30T20:26:12.137Z,97080.52
2019-04-30T20:28:43.945Z,97080.42
2019-04-30T20:31:15.227Z,97079.88
2019-04-30T20:33:48.812Z,97079.39
2019-04-30T20:36:19.674Z,97086.19
2019-04-30T20:39:19.094Z,97088.70
2019-04-30T20:41:52.847Z,97086.92
2019-04-30T20:44:24.421Z,97090.42
2019-04-30T20:46:55.721Z,97090.05
2019-04-30T20:49:28.987Z,97086.27
2019-04-30T20:52:00.149Z,97093.97
2019-04-30T20:54:31.650Z,97087.50
2019-04-30T20:57:03.058Z,97087.50
2019-04-30T20:59:35.320Z,97085.64
2019-04-30T21:02:06.746Z,97082.97
2019-04-30T21:04:37.948Z,97083.98
2019-04-30T21:07:09.465Z,97082.02
2019-04-30T21:09:40.868Z,97085.23
2019-04-30T21:12:12.591Z,97088.45
2019-04-30T21:14:44.821Z,97086.97
2019-04-30T21:17:16.155Z,97089.37
2019-04-30T21:19:47.435Z,97088.69
2019-04-30T21:22:19.741Z,97092.81
2019-04-30T21:24:51.698Z,97091.03
2019-04-30T21:27:22.929Z,97096.92
2019-04-30T21:29:54.378Z,97098.47
2019-04-30T21:32:44.328Z,97102.61
2019-04-30T21:35:40.702Z,97101.82
2019-04-30T21:38:11.957Z,97098.38
2019-04-30T21:40:43.558Z,97099.72
2019-04-30T21:43:14.911Z,97095.91
2019-04-30T21:45:46.398Z,97099.26
2019-04-30T21:48:19.148Z,97096.45
2019-04-30T21:50:51.602Z,97095.39
2019-04-30T21:53:23.048Z,97104.08
2019-04-30T21:55:54.299Z,97088.03
2019-04-30T21:58:25.495Z,97100.83
2019-04-30T22:01:19.198Z,97102.84
2019-04-30T22:03:51.526Z,97099.52
2019-04-30T22:06:23.279Z,97096.70
2019-04-30T22:08:54.794Z,97092.61
2019-04-30T22:11:26.206Z,97093.84
2019-04-30T22:13:57.411Z,97089.02
2019-04-30T22:16:29.658Z,97090.19
2019-04-30T22:19:00.987Z,97097.23
2019-04-30T22:21:32.618Z,97090.63
2019-04-30T22:24:04.074Z,97087.98
2019-04-30T22:26:35.260Z,97090.92
2019-04-30T22:29:06.738Z,97086.53
2019-04-30T22:31:39.632Z,97089.93
2019-04-30T22:34:11.036Z,97089.99
2019-04-30T22:36:48.809Z,97089.23
2019-04-30T22:39:29.905Z,97088.87
2019-04-30T22:42:39.988Z,97096.31
2019-04-30T22:45:34.566Z,97083.60
2019-04-30T22:48:06.063Z,97082.80
2019-04-30T22:50:37.542Z,97085.12
2019-04-30T22:53:09.081Z,97084.13
2019-04-30T22:55:40.364Z,97070.53
2019-04-30T22:58:11.611Z,97080.71
2019-04-30T23:00:45.560Z,97078.75
2019-04-30T23:03:28.293Z,97073.75
2019-04-30T23:05:59.842Z,97074.86
2019-04-30T23:08:31.391Z,97074.45
2019-04-30T23:11:02.775Z,97080.33
2019-04-30T23:13:34.571Z,97081.20
2019-04-30T23:16:06.761Z,97080.80
2019-04-30T23:18:38.024Z,97065.63
2019-04-30T23:21:09.420Z,97066.45
2019-04-30T23:23:40.830Z,97066.52
2019-04-30T23:26:12.144Z,97056.83
2019-04-30T23:28:43.329Z,97065.77
2019-04-30T23:31:14.647Z,97062.08
2019-04-30T23:33:45.891Z,97058.12
2019-04-30T23:36:17.226Z,97055.16
2019-04-30T23:38:48.402Z,97058.28
2019-04-30T23:41:19.711Z,97047.52
2019-04-30T23:43:51.292Z,97055.84
2019-04-30T23:46:22.509Z,97052.55
2019-04-30T23:48:53.795Z,97055.30
2019-04-30T23:51:26.261Z,97055.17
2019-04-30T23:53:57.535Z,97054.30
2019-04-30T23:56:28.844Z,97052.37
2019-04-30T23:59:00.360Z,97047.56
